createdAt,value
2022-10-22T00:00:46.082Z,100794.81
2022-10-22T00:03:12.826Z,100795.66
2022-10-22T00:05:39.441Z,100792.31
2022-10-22T00:08:06.089Z,100787.97
2022-10-22T00:10:32.601Z,100786.91
2022-10-22T00:12:58.971Z,100784.66
2022-10-22T00:15:25.496Z,100793.00
2022-10-22T00:17:51.962Z,100783.84
2022-10-22T00:20:18.537Z,100786.75
2022-10-22T00:22:44.968Z,100787.59
2022-10-22T00:25:11.373Z,100790.28
2022-10-22T00:27:37.857Z,100793.25
2022-10-22T00:30:04.929Z,100795.94
2022-10-22T00:32:31.308Z,100795.13
2022-10-22T00:34:57.653Z,100793.25
2022-10-22T00:37:24.051Z,100795.94
2022-10-22T00:39:50.435Z,100797.84
2022-10-22T00:42:19.932Z,100797.59
2022-10-22T00:45:11.064Z,100799.72
2022-10-22T00:47:41.589Z,100794.13
2022-10-22T00:50:13.136Z,100797.66
2022-10-22T00:52:40.262Z,100807.03
2022-10-22T00:55:07.329Z,100810.31
2022-10-22T00:57:35.070Z,100798.66
2022-10-22T01:00:02.197Z,100801.97
2022-10-22T01:02:28.599Z,100807.38
2022-10-22T01:04:54.952Z,100816.13
2022-10-22T01:07:24.190Z,100814.25
2022-10-22T01:10:02.824Z,100822.16
2022-10-22T01:12:48.010Z,100821.13
2022-10-22T01:15:26.652Z,100827.94
2022-10-22T01:18:10.859Z,100818.41
2022-10-22T01:21:08.625Z,100824.03
2022-10-22T01:24:00.611Z,100815.31
2022-10-22T01:27:00.854Z,100820.72
2022-10-22T01:29:38.426Z,100811.97
2022-10-22T01:32:10.966Z,100811.97
2022-10-22T01:34:41.196Z,100814.94
2022-10-22T01:37:10.532Z,100811.16
2022-10-22T01:39:40.555Z,100807.75
2022-10-22T01:42:06.953Z,100807.75
2022-10-22T01:44:37.286Z,100817.34
2022-10-22T01:47:22.610Z,100809.44
2022-10-22T01:50:03.849Z,100809.44
2022-10-22T01:52:53.945Z,100802.72
2022-10-22T01:55:56.449Z,100800.25
2022-10-22T01:58:29.945Z,100808.97
2022-10-22T02:01:04.928Z,100800.00
2022-10-22T02:03:42.814Z,100795.22
2022-10-22T02:06:17.311Z,100801.47
2022-10-22T02:08:45.098Z,100797.09
2022-10-22T02:11:13.761Z,100798.75
2022-10-22T02:13:44.990Z,100806.25
2022-10-22T02:16:16.602Z,100800.44
2022-10-22T02:18:46.254Z,100799.63
2022-10-22T02:21:13.370Z,100796.91
2022-10-22T02:23:39.886Z,100794.44
2022-10-22T02:26:15.227Z,100802.34
2022-10-22T02:28:54.633Z,100804.47
2022-10-22T02:31:26.425Z,100804.66
2022-10-22T02:33:57.169Z,100793.47
2022-10-22T02:36:24.781Z,100800.38
2022-10-22T02:38:52.171Z,100798.91
2022-10-22T02:41:20.065Z,100800.38
2022-10-22T02:43:54.541Z,100796.25
2022-10-22T02:46:21.568Z,100799.09
2022-10-22T02:48:48.121Z,100801.28
2022-10-22T02:51:14.854Z,100803.38
2022-10-22T02:53:41.357Z,100803.38
2022-10-22T02:56:08.452Z,100801.72
2022-10-22T02:58:35.176Z,100806.47
2022-10-22T03:01:01.575Z,100805.63
2022-10-22T03:03:28.156Z,100802.94
2022-10-22T03:05:54.493Z,100808.78
2022-10-22T03:08:20.849Z,100806.94
2022-10-22T03:10:47.207Z,100814.44
2022-10-22T03:13:13.873Z,100805.06
2022-10-22T03:15:40.211Z,100802.09
2022-10-22T03:18:06.676Z,100798.63
2022-10-22T03:20:33.013Z,100803.84
2022-10-22T03:23:01.065Z,100803.44
2022-10-22T03:25:28.414Z,100809.47
2022-10-22T03:28:00.898Z,100804.88
2022-10-22T03:30:27.317Z,100805.34
2022-10-22T03:32:53.709Z,100812.03
2022-10-22T03:35:20.161Z,100803.91
2022-10-22T03:37:46.616Z,100804.94
2022-10-22T03:40:13.880Z,100808.09
2022-10-22T03:42:41.526Z,100814.34
2022-10-22T03:45:08.745Z,100808.94
2022-10-22T03:47:36.587Z,100809.59
2022-10-22T03:50:05.268Z,100815.84
2022-10-22T03:52:39.527Z,100826.91
2022-10-22T03:55:07.662Z,100826.28
2022-10-22T03:57:34.309Z,100822.56
2022-10-22T04:00:00.717Z,100830.28
2022-10-22T04:02:27.054Z,100833.66
2022-10-22T04:04:53.450Z,100831.78
2022-10-22T04:07:19.841Z,100840.56
2022-10-22T04:09:46.178Z,100840.78
2022-10-22T04:12:12.574Z,100842.44
2022-10-22T04:14:38.950Z,100839.13
2022-10-22T04:17:05.349Z,100842.66
2022-10-22T04:19:31.749Z,100842.44
2022-10-22T04:21:59.732Z,100844.94
2022-10-22T04:24:26.438Z,100847.84
2022-10-22T04:26:56.233Z,100858.91
2022-10-22T04:29:23.382Z,100857.47
2022-10-22T04:31:49.773Z,100854.16
2022-10-22T04:34:16.180Z,100854.16
2022-10-22T04:36:42.530Z,100846.66
2022-10-22T04:39:09.169Z,100856.25
2022-10-22T04:41:37.812Z,100854.56
2022-10-22T04:44:05.102Z,100855.00
2022-10-22T04:46:34.161Z,100847.25
2022-10-22T04:49:00.640Z,100844.31
2022-10-22T04:51:27.824Z,100847.03
2022-10-22T04:53:54.282Z,100846.19
2022-10-22T04:56:22.957Z,100850.56
2022-10-22T04:58:51.456Z,100853.25
2022-10-22T05:01:21.044Z,100853.72
2022-10-22T05:03:52.498Z,100854.94
2022-10-22T05:06:20.793Z,100859.06
2022-10-22T05:08:47.958Z,100864.09
2022-10-22T05:11:23.496Z,100861.41
2022-10-22T05:13:49.877Z,100861.84
2022-10-22T05:16:16.573Z,100869.16
2022-10-22T05:18:44.803Z,100866.44
2022-10-22T05:21:15.054Z,100864.56
2022-10-22T05:23:42.063Z,100871.66
2022-10-22T05:26:10.222Z,100865.44
2022-10-22T05:28:37.417Z,100867.50
2022-10-22T05:31:05.250Z,100866.88
2022-10-22T05:33:33.677Z,100875.63
2022-10-22T05:36:02.070Z,100875.00
2022-10-22T05:38:28.552Z,100877.56
2022-10-22T05:41:03.229Z,100885.06
2022-10-22T05:43:29.817Z,100884.28
2022-10-22T05:45:56.572Z,100885.13
2022-10-22T05:48:23.208Z,100887.59
2022-10-22T05:50:50.750Z,100885.13
2022-10-22T05:53:19.894Z,100889.25
2022-10-22T05:55:46.281Z,100886.34
2022-10-22T05:58:13.698Z,100896.13
2022-10-22T06:00:40.738Z,100899.66
2022-10-22T06:03:07.241Z,100899.91
2022-10-22T06:05:37.857Z,100902.22
2022-10-22T06:08:04.907Z,100895.97
2022-10-22T06:10:31.527Z,100905.53
2022-10-22T06:12:57.990Z,100907.44
2022-10-22T06:15:24.359Z,100912.38
2022-10-22T06:17:50.737Z,100913.44
2022-10-22T06:20:17.457Z,100930.31
2022-10-22T06:22:44.129Z,100920.31
2022-10-22T06:25:10.914Z,100921.97
2022-10-22T06:27:37.262Z,100920.09
2022-10-22T06:30:04.067Z,100915.09
2022-10-22T06:32:30.592Z,100919.09
2022-10-22T06:34:56.977Z,100929.47
2022-10-22T06:37:23.350Z,100937.59
2022-10-22T06:39:49.727Z,100942.56
2022-10-22T06:42:16.101Z,100945.72
2022-10-22T06:44:45.842Z,100948.81
2022-10-22T06:47:12.201Z,100954.22
2022-10-22T06:49:38.614Z,100952.16
2022-10-22T06:52:05.088Z,100953.22
2022-10-22T06:54:31.477Z,100949.22
2022-10-22T06:56:57.831Z,100960.88
2022-10-22T06:59:24.258Z,100957.97
2022-10-22T07:01:50.746Z,100960.88
2022-10-22T07:04:17.163Z,100961.28
2022-10-22T07:06:43.582Z,100970.47
2022-10-22T07:09:10.060Z,100974.00
2022-10-22T07:11:45.156Z,100973.41
2022-10-22T07:14:13.166Z,100987.34
2022-10-22T07:16:42.916Z,100985.63
2022-10-22T07:19:09.453Z,100984.19
2022-10-22T07:21:35.867Z,100982.09
2022-10-22T07:24:02.417Z,100990.22
2022-10-22T07:26:32.407Z,100990.41
2022-10-22T07:29:02.665Z,100993.13
2022-10-22T07:31:29.888Z,100997.09
2022-10-22T07:33:57.063Z,100990.41
2022-10-22T07:36:23.528Z,101002.94
2022-10-22T07:38:55.538Z,101009.63
2022-10-22T07:41:21.979Z,101017.94
2022-10-22T07:43:48.352Z,101011.28
2022-10-22T07:46:14.883Z,101018.56
2022-10-22T07:48:41.634Z,101023.09
2022-10-22T07:51:09.114Z,101023.91
2022-10-22T07:53:36.022Z,101031.63
2022-10-22T07:56:02.478Z,101034.53
2022-10-22T07:58:29.002Z,101033.28
2022-10-22T08:00:56.974Z,101043.94
2022-10-22T08:03:23.514Z,101044.53
2022-10-22T08:05:51.634Z,101050.19
2022-10-22T08:08:18.881Z,101053.50
2022-10-22T08:10:46.966Z,101057.91
2022-10-22T08:13:13.352Z,101055.16
2022-10-22T08:15:39.962Z,101059.31
2022-10-22T08:18:06.378Z,101061.19
2022-10-22T08:20:32.819Z,101061.03
2022-10-22T08:22:59.460Z,101065.78
2022-10-22T08:25:26.340Z,101067.66
2022-10-22T08:27:52.727Z,101064.97
2022-10-22T08:30:19.617Z,101072.69
2022-10-22T08:32:46.302Z,101061.25
2022-10-22T08:35:15.379Z,101068.97
2022-10-22T08:37:43.677Z,101071.63
2022-10-22T08:40:21.513Z,101074.75
2022-10-22T08:43:23.563Z,101082.84
2022-10-22T08:46:10.771Z,101084.50
2022-10-22T08:49:00.106Z,101086.16
2022-10-22T08:51:31.953Z,101089.94
2022-10-22T08:54:14.460Z,101099.94
2022-10-22T08:56:50.447Z,101109.91
2022-10-22T08:59:37.694Z,101098.22
2022-10-22T09:02:14.498Z,101108.88
2022-10-22T09:04:51.225Z,101110.53
2022-10-22T09:07:17.666Z,101115.06
2022-10-22T09:09:50.727Z,101119.66
2022-10-22T09:12:20.231Z,101115.94
2022-10-22T09:14:47.444Z,101126.31
2022-10-22T09:17:25.849Z,101132.16
2022-10-22T09:20:15.906Z,101138.13
2022-10-22T09:23:17.375Z,101136.47
2022-10-22T09:25:45.193Z,101138.28
2022-10-22T09:28:11.574Z,101146.41
2022-10-22T09:30:39.827Z,101141.38
2022-10-22T09:33:06.183Z,101142.63
2022-10-22T09:35:47.746Z,101148.44
2022-10-22T09:38:18.756Z,101150.94
2022-10-22T09:40:52.155Z,101167.66
2022-10-22T09:43:18.980Z,101159.31
2022-10-22T09:45:47.038Z,101152.22
2022-10-22T09:48:34.343Z,101155.50
2022-10-22T09:51:12.787Z,101149.00
2022-10-22T09:53:43.409Z,101166.25
2022-10-22T09:56:19.040Z,101162.00
2022-10-22T09:58:49.240Z,101158.38
2022-10-22T10:01:25.376Z,101148.56
2022-10-22T10:03:52.107Z,101159.19
2022-10-22T10:06:21.007Z,101173.34
2022-10-22T10:08:48.058Z,101169.13
2022-10-22T10:11:33.054Z,101171.19
2022-10-22T10:14:10.365Z,101188.91
2022-10-22T10:16:57.957Z,101188.22
2022-10-22T10:19:51.161Z,101194.09
2022-10-22T10:22:38.271Z,101204.72
2022-10-22T10:25:41.266Z,101203.69
2022-10-22T10:28:24.612Z,101205.34
2022-10-22T10:31:09.652Z,101208.06
2022-10-22T10:33:59.518Z,101209.94
2022-10-22T10:36:54.323Z,101214.34
2022-10-22T10:39:29.565Z,101226.25
2022-10-22T10:42:11.992Z,101226.81
2022-10-22T10:45:02.624Z,101226.56
2022-10-22T10:48:06.742Z,101222.34
2022-10-22T10:51:08.638Z,101225.84
2022-10-22T10:53:49.869Z,101226.53
2022-10-22T10:56:34.496Z,101227.50
2022-10-22T10:59:30.287Z,101237.13
2022-10-22T11:02:13.862Z,101232.94
2022-10-22T11:05:07.003Z,101236.56
2022-10-22T11:07:42.242Z,101241.16
2022-10-22T11:10:29.728Z,101243.25
2022-10-22T11:13:04.045Z,101254.06
2022-10-22T11:15:37.025Z,101246.31
2022-10-22T11:18:34.519Z,101245.81
2022-10-22T11:21:40.050Z,101247.19
2022-10-22T11:24:22.701Z,101250.16
2022-10-22T11:27:12.188Z,101251.78
2022-10-22T11:29:45.179Z,101247.09
2022-10-22T11:32:20.625Z,101253.22
2022-10-22T11:34:50.621Z,101261.78
2022-10-22T11:37:18.104Z,101261.53
2022-10-22T11:39:52.023Z,101258.16
2022-10-22T11:42:21.887Z,101273.56
2022-10-22T11:45:02.065Z,101263.78
2022-10-22T11:47:33.309Z,101269.19
2022-10-22T11:50:18.477Z,101265.84
2022-10-22T11:52:55.006Z,101262.84
2022-10-22T11:55:32.377Z,101273.31
2022-10-22T11:58:22.278Z,101270.63
2022-10-22T12:00:49.181Z,101268.00
2022-10-22T12:03:32.397Z,101270.81
2022-10-22T12:06:04.928Z,101273.81
2022-10-22T12:08:33.803Z,101279.03
2022-10-22T12:11:15.305Z,101286.13
2022-10-22T12:14:06.294Z,101280.47
2022-10-22T12:16:54.561Z,101278.84
2022-10-22T12:19:21.961Z,101271.63
2022-10-22T12:21:53.009Z,101280.03
2022-10-22T12:24:22.492Z,101281.63
2022-10-22T12:26:52.642Z,101280.91
2022-10-22T12:29:23.656Z,101287.56
2022-10-22T12:31:50.311Z,101280.00
2022-10-22T12:34:21.824Z,101292.56
2022-10-22T12:36:50.675Z,101286.81
2022-10-22T12:39:20.150Z,101290.75
2022-10-22T12:41:47.146Z,101284.50
2022-10-22T12:44:17.364Z,101286.81
2022-10-22T12:46:46.913Z,101287.84
2022-10-22T12:49:17.902Z,101291.22
2022-10-22T12:51:46.010Z,101289.03
2022-10-22T12:54:26.636Z,101296.16
2022-10-22T12:56:55.307Z,101290.34
2022-10-22T12:59:27.859Z,101298.25
2022-10-22T13:01:55.504Z,101291.16
2022-10-22T13:04:37.575Z,101288.97
2022-10-22T13:07:03.869Z,101295.25
2022-10-22T13:09:57.989Z,101292.22
2022-10-22T13:12:35.791Z,101287.47
2022-10-22T13:15:32.413Z,101293.97
2022-10-22T13:18:23.729Z,101291.63
2022-10-22T13:21:02.909Z,101290.63
2022-10-22T13:23:31.547Z,101290.84
2022-10-22T13:26:14.277Z,101282.94
2022-10-22T13:28:41.327Z,101289.25
2022-10-22T13:31:27.322Z,101291.31
2022-10-22T13:34:02.406Z,101291.31
2022-10-22T13:36:32.629Z,101291.69
2022-10-22T13:38:59.249Z,101289.34
2022-10-22T13:41:28.387Z,101297.69
2022-10-22T13:43:55.166Z,101300.09
2022-10-22T13:46:23.516Z,101292.13
2022-10-22T13:48:53.477Z,101293.75
2022-10-22T13:51:23.293Z,101297.06
2022-10-22T13:53:52.559Z,101299.47
2022-10-22T13:56:20.711Z,101293.34
2022-10-22T13:58:47.818Z,101290.56
2022-10-22T14:01:20.785Z,101285.19
2022-10-22T14:03:48.896Z,101302.34
2022-10-22T14:06:17.024Z,101303.84
2022-10-22T14:08:45.939Z,101305.16
2022-10-22T14:11:12.586Z,101301.22
2022-10-22T14:13:39.067Z,101296.47
2022-10-22T14:16:08.349Z,101306.34
2022-10-22T14:18:35.757Z,101300.75
2022-10-22T14:21:07.195Z,101308.53
2022-10-22T14:23:36.161Z,101314.00
2022-10-22T14:26:04.289Z,101313.19
2022-10-22T14:28:34.197Z,101321.34
2022-10-22T14:31:10.816Z,101323.66
2022-10-22T14:33:37.231Z,101329.34
2022-10-22T14:36:03.710Z,101329.75
2022-10-22T14:38:30.139Z,101330.44
2022-10-22T14:40:57.833Z,101332.94
2022-10-22T14:43:27.067Z,101331.25
2022-10-22T14:45:55.304Z,101332.09
2022-10-22T14:48:21.674Z,101336.06
2022-10-22T14:50:48.610Z,101333.13
2022-10-22T14:53:16.572Z,101337.88
2022-10-22T14:55:44.256Z,101346.63
2022-10-22T14:58:12.197Z,101338.13
2022-10-22T15:00:41.076Z,101341.44
2022-10-22T15:03:07.476Z,101342.66
2022-10-22T15:05:33.870Z,101341.97
2022-10-22T15:08:00.288Z,101339.66
2022-10-22T15:10:26.853Z,101344.03
2022-10-22T15:12:53.255Z,101352.66
2022-10-22T15:15:22.597Z,101348.25
2022-10-22T15:17:49.630Z,101343.28
2022-10-22T15:20:16.026Z,101348.78
2022-10-22T15:22:42.898Z,101353.28
2022-10-22T15:25:10.246Z,101346.19
2022-10-22T15:27:36.603Z,101359.78
2022-10-22T15:32:35.073Z,101360.13
2022-10-22T15:35:01.714Z,101356.00
2022-10-22T15:37:28.216Z,101361.81
2022-10-22T15:39:54.670Z,101357.22
2022-10-22T15:42:21.056Z,101363.75
2022-10-22T15:44:47.422Z,101371.28
2022-10-22T15:47:13.842Z,101373.31
2022-10-22T15:49:41.937Z,101378.53
2022-10-22T15:52:09.661Z,101372.53
2022-10-22T15:54:36.316Z,101374.19
2022-10-22T15:57:05.676Z,101367.69
2022-10-22T15:59:32.121Z,101361.44
2022-10-22T16:01:58.490Z,101374.44
2022-10-22T16:04:24.833Z,101368.16
2022-10-22T16:06:53.109Z,101361.50
2022-10-22T16:09:22.536Z,101366.94
2022-10-22T16:11:50.149Z,101374.91
2022-10-22T16:14:19.699Z,101372.66
2022-10-22T16:16:48.691Z,101378.28
2022-10-22T16:19:17.545Z,101381.22
2022-10-22T16:21:44.892Z,101382.72
2022-10-22T16:24:12.359Z,101385.66
2022-10-22T16:26:38.733Z,101394.84
2022-10-22T16:29:05.792Z,101390.06
2022-10-22T16:31:32.167Z,101394.06
2022-10-22T16:33:58.568Z,101398.88
2022-10-22T16:36:25.122Z,101399.94
2022-10-22T16:38:51.545Z,101400.13
2022-10-22T16:41:23.506Z,101393.88
2022-10-22T16:43:52.313Z,101398.91
2022-10-22T16:46:20.293Z,101395.59
2022-10-22T16:48:51.729Z,101396.03
2022-10-22T16:51:21.321Z,101395.03
2022-10-22T16:53:48.102Z,101394.41
2022-10-22T16:56:16.524Z,101391.06
2022-10-22T16:58:48.806Z,101398.59
2022-10-22T17:01:18.113Z,101400.72
2022-10-22T17:03:45.596Z,101398.41
2022-10-22T17:06:12.168Z,101402.19
2022-10-22T17:08:39.986Z,101403.22
2022-10-22T17:11:08.395Z,101407.41
2022-10-22T17:13:35.193Z,101409.94
2022-10-22T17:16:06.762Z,101407.88
2022-10-22T17:18:35.143Z,101416.03
2022-10-22T17:21:01.527Z,101417.09
2022-10-22T17:23:30.585Z,101420.88
2022-10-22T17:26:02.017Z,101424.22
2022-10-22T17:28:29.589Z,101431.13
2022-10-22T17:31:08.060Z,101429.63
2022-10-22T17:33:35.480Z,101425.25
2022-10-22T17:36:02.591Z,101429.84
2022-10-22T17:38:28.977Z,101437.16
2022-10-22T17:40:58.529Z,101430.88
2022-10-22T17:43:25.500Z,101437.59
2022-10-22T17:45:51.930Z,101432.56
2022-10-22T17:48:18.417Z,101434.47
2022-10-22T17:50:48.248Z,101431.97
2022-10-22T17:53:17.376Z,101433.00
2022-10-22T17:55:43.744Z,101435.94
2022-10-22T17:58:10.113Z,101443.44
2022-10-22T18:00:36.571Z,101437.63
2022-10-22T18:03:02.997Z,101441.34
2022-10-22T18:05:29.442Z,101443.47
2022-10-22T18:07:56.687Z,101438.03
2022-10-22T18:10:23.432Z,101439.09
2022-10-22T18:12:49.787Z,101445.53
2022-10-22T18:15:16.337Z,101454.72
2022-10-22T18:17:42.966Z,101462.88
2022-10-22T18:20:10.074Z,101459.75
2022-10-22T18:22:36.431Z,101464.34
2022-10-22T18:25:02.811Z,101464.56
2022-10-22T18:27:29.195Z,101458.50
2022-10-22T18:29:55.541Z,101458.72
2022-10-22T18:32:21.937Z,101457.88
2022-10-22T18:34:48.363Z,101466.22
2022-10-22T18:37:14.737Z,101458.06
2022-10-22T18:39:41.241Z,101457.25
2022-10-22T18:42:07.635Z,101454.75
2022-10-22T18:44:34.742Z,101448.50
2022-10-22T18:47:01.200Z,101452.22
2022-10-22T18:49:27.542Z,101448.50
2022-10-22T18:51:53.926Z,101447.84
2022-10-22T18:54:24.356Z,101454.13
2022-10-22T18:56:52.581Z,101458.28
2022-10-22T18:59:22.274Z,101452.03
2022-10-22T19:01:48.927Z,101452.88
2022-10-22T19:04:15.489Z,101448.50
2022-10-22T19:06:45.247Z,101449.75
2022-10-22T19:09:15.967Z,101448.91
2022-10-22T19:11:44.769Z,101439.34
2022-10-22T19:14:13.045Z,101441.41
2022-10-22T19:16:39.474Z,101437.03
2022-10-22T19:19:07.426Z,101446.00
2022-10-22T19:21:34.225Z,101439.75
2022-10-22T19:24:00.841Z,101441.63
2022-10-22T19:26:29.021Z,101441.63
2022-10-22T19:28:56.578Z,101437.03
2022-10-22T19:31:25.280Z,101439.75
2022-10-22T19:33:54.456Z,101442.69
2022-10-22T19:36:24.199Z,101442.88
2022-10-22T19:38:51.340Z,101447.69
2022-10-22T19:41:21.217Z,101441.84
2022-10-22T19:43:50.274Z,101443.28
2022-10-22T19:46:17.545Z,101448.28
2022-10-22T19:51:18.705Z,101441.19
2022-10-22T19:53:45.889Z,101438.91
2022-10-22T19:56:16.939Z,101445.59
2022-10-22T19:58:43.882Z,101441.63
2022-10-22T20:01:12.668Z,101439.53
2022-10-22T20:03:39.489Z,101435.16
2022-10-22T20:06:08.058Z,101444.13
2022-10-22T20:08:37.749Z,101437.22
2022-10-22T20:11:10.534Z,101442.63
2022-10-22T20:16:09.582Z,101443.47
2022-10-22T20:18:36.710Z,101449.72
2022-10-22T20:21:07.921Z,101450.78
2022-10-22T20:23:34.607Z,101447.44
2022-10-22T20:26:01.045Z,101453.50
2022-10-22T20:28:27.708Z,101454.31
2022-10-22T20:30:54.096Z,101458.09
2022-10-22T20:33:20.465Z,101450.97
2022-10-22T20:35:46.851Z,101444.94
2022-10-22T20:38:14.715Z,101454.94
2022-10-22T20:40:41.155Z,101448.47
2022-10-22T20:43:10.516Z,101454.94
2022-10-22T20:45:38.758Z,101447.66
2022-10-22T20:48:05.799Z,101444.28
2022-10-22T20:50:32.515Z,101443.47
2022-10-22T20:52:59.401Z,101448.06
2022-10-22T20:55:26.608Z,101454.31
2022-10-22T20:57:53.056Z,101445.34
2022-10-22T21:00:19.448Z,101451.59
2022-10-22T21:02:45.892Z,101439.91
2022-10-22T21:05:12.273Z,101440.75
2022-10-22T21:07:38.914Z,101443.47
2022-10-22T21:10:05.877Z,101450.97
2022-10-22T21:12:32.269Z,101444.72
2022-10-22T21:14:58.684Z,101449.50
2022-10-22T21:17:25.030Z,101440.75
2022-10-22T21:19:51.390Z,101450.97
2022-10-22T21:22:17.769Z,101450.53
2022-10-22T21:24:44.153Z,101450.06
2022-10-22T21:27:10.550Z,101455.69
2022-10-22T21:29:36.889Z,101463.19
2022-10-22T21:32:03.307Z,101464.22
2022-10-22T21:34:29.723Z,101461.72
2022-10-22T21:36:56.089Z,101453.78
2022-10-22T21:39:22.504Z,101459.03
2022-10-22T21:41:48.857Z,101457.16
2022-10-22T21:44:15.234Z,101457.16
2022-10-22T21:46:41.586Z,101457.16
2022-10-22T21:49:08.025Z,101461.53
2022-10-22T21:51:35.685Z,101462.56
2022-10-22T21:54:02.128Z,101467.16
2022-10-22T21:56:32.666Z,101458.19
2022-10-22T21:58:59.358Z,101463.63
2022-10-22T22:01:25.976Z,101459.03
2022-10-22T22:03:52.608Z,101453.59
2022-10-22T22:06:22.016Z,101453.78
2022-10-22T22:08:49.813Z,101453.19
2022-10-22T22:11:18.748Z,101444.22
2022-10-22T22:13:45.520Z,101452.53
2022-10-22T22:16:18.038Z,101449.22
2022-10-22T22:18:44.495Z,101449.22
2022-10-22T22:21:14.337Z,101449.41
2022-10-22T22:23:44.022Z,101442.13
2022-10-22T22:26:11.255Z,101441.47
2022-10-22T22:28:37.979Z,101438.78
2022-10-22T22:31:23.557Z,101436.06
2022-10-22T22:33:50.801Z,101429.59
2022-10-22T22:36:17.395Z,101434.19
2022-10-22T22:38:43.824Z,101433.38
2022-10-22T22:41:10.385Z,101426.28
2022-10-22T22:43:37.575Z,101430.66
2022-10-22T22:46:11.081Z,101424.63
2022-10-22T22:48:37.435Z,101430.03
2022-10-22T22:51:05.504Z,101433.75
2022-10-22T22:53:33.149Z,101431.28
2022-10-22T22:56:03.601Z,101428.78
2022-10-22T22:58:30.205Z,101427.09
2022-10-22T23:01:06.967Z,101417.31
2022-10-22T23:03:33.418Z,101423.53
2022-10-22T23:05:59.776Z,101422.09
2022-10-22T23:08:26.152Z,101421.25
2022-10-22T23:10:52.498Z,101425.00
2022-10-22T23:13:18.873Z,101417.91
2022-10-22T23:15:45.239Z,101417.09
2022-10-22T23:18:11.690Z,101410.63
2022-10-22T23:20:38.381Z,101411.44
2022-10-22T23:23:06.074Z,101407.91
2022-10-22T23:25:32.641Z,101408.13
2022-10-22T23:27:58.990Z,101401.88
2022-10-22T23:30:25.339Z,101405.59
2022-10-22T23:32:51.729Z,101400.41
2022-10-22T23:35:18.110Z,101396.88
2022-10-22T23:37:44.697Z,101405.00
2022-10-22T23:40:11.384Z,101397.91
2022-10-22T23:45:05.420Z,101390.81
2022-10-22T23:47:31.814Z,101388.31
2022-10-22T23:49:58.172Z,101392.91
2022-10-22T23:52:24.541Z,101386.84
2022-10-22T23:54:50.914Z,101383.31
2022-10-22T23:57:17.263Z,101371.88
2022-10-22T23:59:43.694Z,101370.81
